CheckWX is a tool to help pilots better visualize weather data.  It is not intended as a substitute for an official pre-flight weather briefing.

04:53:05 UTC

KLSF TAF
Lawson AAF (Fort Benning) Airport
Fort Benning(Columbus), Georgia, USA
TAF KLSF 180100Z 1801/1907 19003KT 9999 FEW050 QNH2995INS BECMG 1808/1809 VRB03KT 8000 BR BKN009 QNH2997INS BECMG 1812/1813 20006KT 9999 NSW SCT035 QNH2993INS BECMG 1820/1821 20009KT 8000 -SHRA BKN040 QNH2988INS TEMPO 1823/1903 20015G25KT 4800 -TSRA BKN040CB BECMG 1904/1905 22006KT 9999 NSW BKN006 QNH2986INS TX31/1820Z TN20/1811Z

Jun-18@
01:00 UTC

Jun-18 @ 01:00 UTC

Jun-18@
08:00 UTC

Jun-18 @ 08:00 UTC

TAF KLSF 180100Z 1801/1907 19003KT 9999 FEW050 QNH2995INS
Wind
  • 190° at 3 KTS
Cloud Levels
  • Few at 5,000' AGL

Jun-18@
08:00 UTC

Jun-18 @ 08:00 UTC

Jun-18@
12:00 UTC

Jun-18 @ 12:00 UTC

BECMG 1808/1809 VRB03KT 8000 BR BKN009 QNH2997INS

Becoming

Becoming Conditions expected by Tue, Jun 18, 2019 @ 09:00 UTC

Wind
  • Variable at 3 KTS
Conditions
Mist
Cloud Levels
  • Broken at 900' AGL

Jun-18@
12:00 UTC

Jun-18 @ 12:00 UTC

Jun-18@
20:00 UTC

Jun-18 @ 20:00 UTC

BECMG 1812/1813 20006KT 9999 NSW SCT035 QNH2993INS

Becoming

Becoming Conditions expected by Tue, Jun 18, 2019 @ 13:00 UTC

Wind
  • 200° at 6 KTS
Conditions
No significant weather
Cloud Levels
  • Scattered at 3,500' AGL

Jun-18@
20:00 UTC

Jun-18 @ 20:00 UTC

Jun-19@
04:00 UTC

Jun-19 @ 04:00 UTC

BECMG 1820/1821 20009KT 8000 -SHRA BKN040 QNH2988INS

Becoming

Becoming Conditions expected by Tue, Jun 18, 2019 @ 21:00 UTC

Wind
  • 200° at 9 KTS
Conditions
Light Rain
Cloud Levels
  • Broken at 4,000' AGL

Jun-18@
23:00 UTC

Jun-18 @ 23:00 UTC

Jun-19@
03:00 UTC

Jun-19 @ 03:00 UTC

TEMPO 1823/1903 20015G25KT 4800 -TSRA BKN040CB

Temporary

Temporary Changes expected for less than half the time period

Wind
  • 200° at 15 KTS
  • {Gusting to 25 KTS
Conditions
Light Thunderstorm, Light Rain
Cloud Levels
  • Broken at 4,000' AGL

Jun-19@
04:00 UTC

Jun-19 @ 04:00 UTC

Jun-19@
07:00 UTC

Jun-19 @ 07:00 UTC

BECMG 1904/1905 22006KT 9999 NSW BKN006 QNH2986INS TX31/1820Z TN20/1811Z

Becoming

Becoming Conditions expected by Wed, Jun 19, 2019 @ 05:00 UTC

Wind
  • 220° at 6 KTS
Conditions
No significant weather
Cloud Levels
  • Broken at 600' AGL